BAW46V EDDK-EGLL
Flight info
| Callsign | BAW46V |
|---|---|
| Flight time | 1h 1m |
| Altitude | 32000 |
| Route | NVO2R/31R NVO Y868 SOGRI DCT DENUT L608 LOGAN |
| Aircraft | A320/M-SDE3FGHIRWY/LB1 |
Departure
| Time | 2026-05-06 20:21 |
|---|---|
| Airport | Cologne Bonn Airport (EDDK) |
Arrival
| Time | 2026-05-06 21:22 |
|---|---|
| Airport | London Heathrow Airport (EGLL) |
| Time | Latitude | Longitude | Altitude | Speed | Heading |
|---|---|---|---|---|---|
| 2026-05-06 19:35 | 50.87647 | 7.12357 | 233 ft | 0 kts | 288° |
| 2026-05-06 20:03 | 50.87644 | 7.12373 | 230 ft | 4 kts | 288° |
| 2026-05-06 20:03 | 50.87635 | 7.12413 | 230 ft | 4 kts | 292° |
| 2026-05-06 20:04 | 50.87623 | 7.12451 | 233 ft | 4 kts | 311° |
| 2026-05-06 20:04 | 50.87606 | 7.12469 | 234 ft | 2 kts | 13° |
| 2026-05-06 20:04 | 50.87604 | 7.12468 | 234 ft | 0 kts | 16° |
| 2026-05-06 20:07 | 50.87607 | 7.12470 | 234 ft | 3 kts | 16° |
| 2026-05-06 20:07 | 50.87639 | 7.12484 | 231 ft | 6 kts | 15° |
| 2026-05-06 20:08 | 50.87689 | 7.12509 | 230 ft | 9 kts | 18° |
| 2026-05-06 20:08 | 50.87751 | 7.12557 | 230 ft | 11 kts | 45° |
| 2026-05-06 20:08 | 50.87767 | 7.12683 | 230 ft | 13 kts | 105° |
| 2026-05-06 20:08 | 50.87702 | 7.12794 | 230 ft | 15 kts | 137° |
| 2026-05-06 20:09 | 50.87622 | 7.12912 | 230 ft | 17 kts | 138° |
| 2026-05-06 20:09 | 50.87530 | 7.13044 | 231 ft | 18 kts | 137° |
| 2026-05-06 20:09 | 50.87435 | 7.13184 | 232 ft | 20 kts | 137° |
| 2026-05-06 20:09 | 50.87330 | 7.13338 | 234 ft | 21 kts | 138° |
| 2026-05-06 20:10 | 50.87219 | 7.13498 | 237 ft | 22 kts | 137° |
| 2026-05-06 20:10 | 50.87105 | 7.13663 | 240 ft | 22 kts | 138° |
| 2026-05-06 20:10 | 50.86988 | 7.13832 | 243 ft | 23 kts | 137° |
| 2026-05-06 20:10 | 50.86869 | 7.14002 | 244 ft | 22 kts | 138° |
| 2026-05-06 20:11 | 50.86823 | 7.14067 | 248 ft | 0 kts | 139° |
| 2026-05-06 20:11 | 50.86821 | 7.14069 | 248 ft | 2 kts | 139° |
| 2026-05-06 20:11 | 50.86790 | 7.14113 | 250 ft | 10 kts | 140° |
| 2026-05-06 20:11 | 50.86719 | 7.14157 | 253 ft | 11 kts | 146° |
| 2026-05-06 20:12 | 50.86699 | 7.14188 | 255 ft | 0 kts | 136° |
| 2026-05-06 20:12 | 50.86698 | 7.14189 | 255 ft | 1 kts | 136° |
| 2026-05-06 20:13 | 50.86690 | 7.14201 | 255 ft | 4 kts | 136° |
| 2026-05-06 20:13 | 50.86646 | 7.14265 | 257 ft | 13 kts | 138° |
| 2026-05-06 20:13 | 50.86550 | 7.14402 | 258 ft | 24 kts | 137° |
| 2026-05-06 20:13 | 50.86471 | 7.14518 | 260 ft | 7 kts | 138° |
| 2026-05-06 20:14 | 50.86441 | 7.14560 | 262 ft | 4 kts | 138° |
| 2026-05-06 20:14 | 50.86420 | 7.14591 | 263 ft | 4 kts | 136° |
| 2026-05-06 20:14 | 50.86397 | 7.14625 | 264 ft | 5 kts | 136° |
| 2026-05-06 20:14 | 50.86370 | 7.14666 | 264 ft | 7 kts | 137° |
| 2026-05-06 20:15 | 50.86319 | 7.14738 | 266 ft | 10 kts | 137° |
| 2026-05-06 20:15 | 50.86269 | 7.14811 | 269 ft | 11 kts | 137° |
| 2026-05-06 20:15 | 50.86205 | 7.14904 | 270 ft | 15 kts | 137° |
| 2026-05-06 20:15 | 50.86122 | 7.15025 | 274 ft | 17 kts | 137° |
| 2026-05-06 20:16 | 50.86025 | 7.15167 | 277 ft | 21 kts | 137° |
| 2026-05-06 20:16 | 50.85913 | 7.15326 | 283 ft | 22 kts | 138° |
| 2026-05-06 20:16 | 50.85793 | 7.15499 | 294 ft | 23 kts | 137° |
| 2026-05-06 20:16 | 50.85675 | 7.15670 | 297 ft | 23 kts | 138° |
| 2026-05-06 20:17 | 50.85556 | 7.15839 | 300 ft | 24 kts | 138° |
| 2026-05-06 20:17 | 50.85490 | 7.15976 | 301 ft | 9 kts | 89° |
| 2026-05-06 20:17 | 50.85518 | 7.16056 | 303 ft | 8 kts | 51° |
| 2026-05-06 20:17 | 50.85560 | 7.16128 | 306 ft | 9 kts | 47° |
| 2026-05-06 20:18 | 50.85599 | 7.16194 | 309 ft | 7 kts | 49° |
| 2026-05-06 20:18 | 50.85610 | 7.16214 | 308 ft | 0 kts | 49° |
| 2026-05-06 20:18 | 50.85614 | 7.16221 | 310 ft | 3 kts | 49° |
| 2026-05-06 20:19 | 50.85649 | 7.16284 | 309 ft | 12 kts | 48° |
| 2026-05-06 20:19 | 50.85717 | 7.16283 | 309 ft | 13 kts | 316° |
| 2026-05-06 20:19 | 50.85724 | 7.16273 | 308 ft | 0 kts | 317° |
| 2026-05-06 20:20 | 50.85809 | 7.16154 | 308 ft | 47 kts | 318° |
| 2026-05-06 20:20 | 50.86212 | 7.15566 | 278 ft | 109 kts | 317° |
| 2026-05-06 20:20 | 50.86897 | 7.14573 | 257 ft | 157 kts | 317° |
| 2026-05-06 20:21 | 50.87769 | 7.13297 | 487 ft | 179 kts | 317° |
| 2026-05-06 20:21 | 50.88383 | 7.12388 | 870 ft | 184 kts | 317° |
| 2026-05-06 20:21 | 50.89325 | 7.11006 | 1702 ft | 184 kts | 319° |
| 2026-05-06 20:21 | 50.90238 | 7.09597 | 2349 ft | 186 kts | 311° |
| 2026-05-06 20:22 | 50.91027 | 7.07025 | 2884 ft | 207 kts | 283° |
| 2026-05-06 20:22 | 50.91087 | 7.05475 | 3267 ft | 212 kts | 268° |
| 2026-05-06 20:22 | 50.90724 | 7.03191 | 3863 ft | 219 kts | 254° |
| 2026-05-06 20:22 | 50.90218 | 7.00824 | 4220 ft | 237 kts | 253° |
| 2026-05-06 20:23 | 50.89665 | 6.98224 | 4601 ft | 260 kts | 254° |
| 2026-05-06 20:23 | 50.89073 | 6.95463 | 5304 ft | 269 kts | 254° |
| 2026-05-06 20:23 | 50.88465 | 6.92629 | 6118 ft | 274 kts | 254° |
| 2026-05-06 20:23 | 50.87846 | 6.89751 | 6897 ft | 278 kts | 254° |
| 2026-05-06 20:24 | 50.87221 | 6.86831 | 7680 ft | 282 kts | 254° |
| 2026-05-06 20:24 | 50.86588 | 6.83871 | 8471 ft | 286 kts | 254° |
| 2026-05-06 20:24 | 50.85953 | 6.80897 | 9244 ft | 290 kts | 254° |
| 2026-05-06 20:24 | 50.85298 | 6.77813 | 10003 ft | 294 kts | 256° |
| 2026-05-06 20:25 | 50.84985 | 6.74545 | 10305 ft | 311 kts | 270° |
| 2026-05-06 20:25 | 50.84915 | 6.71052 | 10499 ft | 332 kts | 271° |
| 2026-05-06 20:25 | 50.84857 | 6.67349 | 11029 ft | 340 kts | 271° |
| 2026-05-06 20:25 | 50.84801 | 6.63592 | 11707 ft | 343 kts | 271° |
| 2026-05-06 20:26 | 50.84742 | 6.59808 | 12402 ft | 346 kts | 270° |
| 2026-05-06 20:26 | 50.84676 | 6.56009 | 13121 ft | 347 kts | 270° |
| 2026-05-06 20:26 | 50.84601 | 6.52185 | 13865 ft | 349 kts | 269° |
| 2026-05-06 20:26 | 50.84522 | 6.48341 | 14497 ft | 351 kts | 269° |
| 2026-05-06 20:27 | 50.84441 | 6.44471 | 15107 ft | 354 kts | 269° |
| 2026-05-06 20:27 | 50.84358 | 6.40565 | 15709 ft | 356 kts | 269° |
| 2026-05-06 20:27 | 50.84379 | 6.36633 | 16297 ft | 358 kts | 278° |
| 2026-05-06 20:27 | 50.84910 | 6.32775 | 16894 ft | 360 kts | 284° |
| 2026-05-06 20:28 | 50.85513 | 6.28909 | 17497 ft | 363 kts | 284° |
| 2026-05-06 20:28 | 50.86128 | 6.25013 | 18087 ft | 366 kts | 284° |
| 2026-05-06 20:28 | 50.86748 | 6.21082 | 18616 ft | 370 kts | 284° |
| 2026-05-06 20:28 | 50.87371 | 6.17114 | 19138 ft | 373 kts | 284° |
| 2026-05-06 20:29 | 50.87999 | 6.13105 | 19677 ft | 376 kts | 284° |
| 2026-05-06 20:29 | 50.88631 | 6.09054 | 20189 ft | 380 kts | 284° |
| 2026-05-06 20:29 | 50.89265 | 6.04971 | 20722 ft | 383 kts | 283° |
| 2026-05-06 20:29 | 50.89903 | 6.00844 | 21220 ft | 387 kts | 283° |
| 2026-05-06 20:30 | 50.90543 | 5.96691 | 21743 ft | 389 kts | 283° |
| 2026-05-06 20:30 | 50.91836 | 5.88280 | 22684 ft | 397 kts | 283° |
| 2026-05-06 20:30 | 50.92485 | 5.84019 | 23169 ft | 399 kts | 283° |
| 2026-05-06 20:31 | 50.93140 | 5.79713 | 23590 ft | 404 kts | 283° |
| 2026-05-06 20:31 | 50.93802 | 5.75372 | 23983 ft | 406 kts | 283° |
| 2026-05-06 20:31 | 50.94467 | 5.71008 | 24391 ft | 408 kts | 283° |
| 2026-05-06 20:31 | 50.95133 | 5.66622 | 24780 ft | 410 kts | 282° |
| 2026-05-06 20:32 | 50.95799 | 5.62214 | 25201 ft | 411 kts | 283° |
| 2026-05-06 20:32 | 50.96464 | 5.57803 | 25613 ft | 412 kts | 283° |
| 2026-05-06 20:32 | 50.97131 | 5.53359 | 25994 ft | 414 kts | 283° |
| 2026-05-06 20:32 | 50.97789 | 5.48965 | 26354 ft | 416 kts | 282° |
| 2026-05-06 20:33 | 50.98458 | 5.44493 | 26725 ft | 418 kts | 282° |
| 2026-05-06 20:33 | 50.99128 | 5.39992 | 27076 ft | 420 kts | 282° |
| 2026-05-06 20:33 | 50.99799 | 5.35454 | 27436 ft | 422 kts | 282° |
| 2026-05-06 20:33 | 51.00472 | 5.30902 | 27783 ft | 425 kts | 282° |
| 2026-05-06 20:34 | 51.01147 | 5.26337 | 27929 ft | 422 kts | 282° |
| 2026-05-06 20:34 | 51.01814 | 5.21827 | 27948 ft | 417 kts | 282° |
| 2026-05-06 20:34 | 51.02472 | 5.17355 | 27946 ft | 415 kts | 282° |
| 2026-05-06 20:34 | 51.03128 | 5.12880 | 27947 ft | 415 kts | 282° |
| 2026-05-06 20:35 | 51.03777 | 5.08418 | 27951 ft | 415 kts | 282° |
| 2026-05-06 20:35 | 51.04425 | 5.03948 | 27950 ft | 415 kts | 282° |
| 2026-05-06 20:35 | 51.05073 | 4.99483 | 27950 ft | 415 kts | 282° |
| 2026-05-06 20:35 | 51.05718 | 4.95023 | 27950 ft | 415 kts | 282° |
| 2026-05-06 20:36 | 51.06362 | 4.90547 | 27952 ft | 415 kts | 282° |
| 2026-05-06 20:36 | 51.07006 | 4.86071 | 27952 ft | 415 kts | 282° |
| 2026-05-06 20:36 | 51.07649 | 4.81594 | 27954 ft | 415 kts | 282° |
| 2026-05-06 20:36 | 51.08290 | 4.77122 | 27956 ft | 415 kts | 282° |
| 2026-05-06 20:37 | 51.08931 | 4.72641 | 27978 ft | 415 kts | 282° |
| 2026-05-06 20:37 | 51.09562 | 4.68214 | 27985 ft | 415 kts | 282° |
| 2026-05-06 20:37 | 51.10196 | 4.63735 | 27984 ft | 415 kts | 282° |
| 2026-05-06 20:37 | 51.10829 | 4.59256 | 27986 ft | 415 kts | 282° |
| 2026-05-06 20:38 | 51.11462 | 4.54778 | 27985 ft | 415 kts | 282° |
| 2026-05-06 20:38 | 51.12092 | 4.50296 | 27984 ft | 414 kts | 282° |
| 2026-05-06 20:38 | 51.12721 | 4.45818 | 27982 ft | 414 kts | 282° |
| 2026-05-06 20:38 | 51.13347 | 4.41339 | 27983 ft | 414 kts | 282° |
| 2026-05-06 20:39 | 51.13971 | 4.36861 | 27981 ft | 414 kts | 282° |
| 2026-05-06 20:39 | 51.14594 | 4.32381 | 27981 ft | 414 kts | 282° |
| 2026-05-06 20:39 | 51.15214 | 4.27903 | 27979 ft | 414 kts | 282° |
| 2026-05-06 20:39 | 51.15835 | 4.23422 | 27979 ft | 414 kts | 282° |
| 2026-05-06 20:40 | 51.16451 | 4.18933 | 27977 ft | 414 kts | 281° |
| 2026-05-06 20:40 | 51.17062 | 4.14446 | 27977 ft | 414 kts | 281° |
| 2026-05-06 20:40 | 51.17674 | 4.09955 | 27975 ft | 414 kts | 281° |
| 2026-05-06 20:40 | 51.18284 | 4.05470 | 27976 ft | 414 kts | 281° |
| 2026-05-06 20:41 | 51.18895 | 4.00981 | 27974 ft | 414 kts | 281° |
| 2026-05-06 20:41 | 51.19502 | 3.96497 | 27965 ft | 414 kts | 281° |
| 2026-05-06 20:41 | 51.20109 | 3.92008 | 27962 ft | 414 kts | 281° |
| 2026-05-06 20:41 | 51.20716 | 3.87519 | 27961 ft | 414 kts | 281° |
| 2026-05-06 20:42 | 51.21319 | 3.83024 | 27960 ft | 414 kts | 281° |
| 2026-05-06 20:42 | 51.21916 | 3.78542 | 27961 ft | 414 kts | 281° |
| 2026-05-06 20:42 | 51.22514 | 3.74049 | 27965 ft | 413 kts | 281° |
| 2026-05-06 20:42 | 51.23117 | 3.69564 | 27968 ft | 413 kts | 283° |
| 2026-05-06 20:43 | 51.24006 | 3.65204 | 27965 ft | 414 kts | 292° |
| 2026-05-06 20:43 | 51.25326 | 3.61122 | 27971 ft | 414 kts | 300° |
| 2026-05-06 20:43 | 51.26781 | 3.57221 | 27972 ft | 414 kts | 300° |
| 2026-05-06 20:43 | 51.28104 | 3.53149 | 27981 ft | 413 kts | 291° |
| 2026-05-06 20:44 | 51.29184 | 3.48902 | 27979 ft | 413 kts | 291° |
| 2026-05-06 20:44 | 51.30266 | 3.44651 | 27980 ft | 412 kts | 291° |
| 2026-05-06 20:44 | 51.31344 | 3.40398 | 27983 ft | 412 kts | 291° |
| 2026-05-06 20:44 | 51.32417 | 3.36148 | 27985 ft | 412 kts | 291° |
| 2026-05-06 20:45 | 51.33485 | 3.31902 | 27984 ft | 412 kts | 290° |
| 2026-05-06 20:45 | 51.34554 | 3.27647 | 27984 ft | 411 kts | 290° |
| 2026-05-06 20:45 | 51.35619 | 3.23402 | 27994 ft | 411 kts | 290° |
| 2026-05-06 20:45 | 51.36681 | 3.19156 | 27992 ft | 411 kts | 290° |
| 2026-05-06 20:46 | 51.37739 | 3.14908 | 27990 ft | 411 kts | 290° |
| 2026-05-06 20:46 | 51.38795 | 3.10665 | 27987 ft | 410 kts | 290° |
| 2026-05-06 20:46 | 51.39848 | 3.06421 | 27988 ft | 410 kts | 290° |
| 2026-05-06 20:46 | 51.40899 | 3.02176 | 27995 ft | 410 kts | 290° |
| 2026-05-06 20:47 | 51.41949 | 2.97934 | 27989 ft | 409 kts | 290° |
| 2026-05-06 20:47 | 51.43000 | 2.93697 | 27985 ft | 409 kts | 290° |
| 2026-05-06 20:47 | 51.44049 | 2.89450 | 27982 ft | 409 kts | 290° |
| 2026-05-06 20:47 | 51.45092 | 2.85213 | 27990 ft | 409 kts | 290° |
| 2026-05-06 20:48 | 51.46134 | 2.80971 | 27993 ft | 408 kts | 290° |
| 2026-05-06 20:48 | 51.47174 | 2.76731 | 27994 ft | 408 kts | 290° |
| 2026-05-06 20:48 | 51.48213 | 2.72495 | 27997 ft | 408 kts | 290° |
| 2026-05-06 20:49 | 51.50279 | 2.64040 | 28008 ft | 407 kts | 290° |
| 2026-05-06 20:49 | 51.52326 | 2.55628 | 27998 ft | 407 kts | 290° |
| 2026-05-06 20:49 | 51.53353 | 2.51400 | 27998 ft | 407 kts | 290° |
| 2026-05-06 20:50 | 51.54379 | 2.47163 | 28000 ft | 407 kts | 290° |
| 2026-05-06 20:50 | 51.55404 | 2.42920 | 28000 ft | 407 kts | 290° |
| 2026-05-06 20:50 | 51.56428 | 2.38672 | 28002 ft | 407 kts | 290° |
| 2026-05-06 20:51 | 51.58472 | 2.30179 | 28004 ft | 407 kts | 290° |
| 2026-05-06 20:51 | 51.60512 | 2.21676 | 28006 ft | 407 kts | 290° |
| 2026-05-06 20:52 | 51.62544 | 2.13183 | 28006 ft | 407 kts | 290° |
| 2026-05-06 20:52 | 51.64562 | 2.04677 | 27999 ft | 406 kts | 290° |
| 2026-05-06 20:52 | 51.65566 | 2.00420 | 27999 ft | 406 kts | 290° |
| 2026-05-06 20:53 | 51.66573 | 1.96163 | 27995 ft | 407 kts | 290° |
| 2026-05-06 20:53 | 51.68580 | 1.87666 | 27790 ft | 400 kts | 290° |
| 2026-05-06 20:53 | 51.69545 | 1.83571 | 27426 ft | 393 kts | 290° |
| 2026-05-06 20:54 | 51.70506 | 1.79473 | 26958 ft | 389 kts | 290° |
| 2026-05-06 20:54 | 51.71468 | 1.75356 | 26509 ft | 386 kts | 289° |
| 2026-05-06 20:54 | 51.72408 | 1.71324 | 26073 ft | 383 kts | 289° |
| 2026-05-06 20:54 | 51.73329 | 1.67363 | 25651 ft | 380 kts | 289° |
| 2026-05-06 20:55 | 51.74135 | 1.63324 | 25235 ft | 377 kts | 282° |
| 2026-05-06 20:55 | 51.74491 | 1.59154 | 24777 ft | 375 kts | 272° |
| 2026-05-06 20:55 | 51.74380 | 1.54933 | 24181 ft | 378 kts | 264° |
| 2026-05-06 20:55 | 51.74101 | 1.50704 | 23612 ft | 381 kts | 264° |
| 2026-05-06 20:56 | 51.73822 | 1.46441 | 22969 ft | 382 kts | 264° |
| 2026-05-06 20:56 | 51.73544 | 1.42187 | 22401 ft | 381 kts | 264° |
| 2026-05-06 20:56 | 51.73268 | 1.37936 | 21829 ft | 381 kts | 264° |
| 2026-05-06 20:56 | 51.72992 | 1.33686 | 21255 ft | 381 kts | 264° |
| 2026-05-06 20:57 | 51.72715 | 1.29445 | 20814 ft | 377 kts | 264° |
| 2026-05-06 20:57 | 51.72436 | 1.25224 | 20278 ft | 377 kts | 264° |
| 2026-05-06 20:57 | 51.72158 | 1.21055 | 19860 ft | 372 kts | 264° |
| 2026-05-06 20:57 | 51.71879 | 1.16916 | 19372 ft | 369 kts | 264° |
| 2026-05-06 20:58 | 51.71605 | 1.12838 | 18531 ft | 363 kts | 264° |
| 2026-05-06 20:58 | 51.71337 | 1.08839 | 17854 ft | 353 kts | 264° |
| 2026-05-06 20:58 | 51.71074 | 1.04986 | 17337 ft | 340 kts | 264° |
| 2026-05-06 20:58 | 51.70816 | 1.01225 | 16831 ft | 336 kts | 264° |
| 2026-05-06 20:59 | 51.70561 | 0.97490 | 16328 ft | 334 kts | 264° |
| 2026-05-06 20:59 | 51.70309 | 0.93783 | 15829 ft | 333 kts | 264° |
| 2026-05-06 20:59 | 51.70055 | 0.90062 | 15362 ft | 334 kts | 264° |
| 2026-05-06 20:59 | 51.69799 | 0.86356 | 14880 ft | 333 kts | 264° |
| 2026-05-06 21:00 | 51.69538 | 0.82650 | 14392 ft | 332 kts | 264° |
| 2026-05-06 21:00 | 51.69275 | 0.78953 | 13913 ft | 332 kts | 264° |
| 2026-05-06 21:00 | 51.69010 | 0.75256 | 13392 ft | 332 kts | 264° |
| 2026-05-06 21:00 | 51.68746 | 0.71568 | 12910 ft | 330 kts | 264° |
| 2026-05-06 21:01 | 51.68488 | 0.67933 | 12423 ft | 321 kts | 264° |
| 2026-05-06 21:01 | 51.68236 | 0.64407 | 11966 ft | 321 kts | 264° |
| 2026-05-06 21:01 | 51.67983 | 0.60840 | 11500 ft | 320 kts | 264° |
| 2026-05-06 21:01 | 51.67727 | 0.57282 | 11056 ft | 319 kts | 264° |
| 2026-05-06 21:02 | 51.67473 | 0.53806 | 10921 ft | 308 kts | 264° |
| 2026-05-06 21:02 | 51.67227 | 0.50435 | 10790 ft | 296 kts | 264° |
| 2026-05-06 21:02 | 51.66990 | 0.47206 | 10417 ft | 285 kts | 264° |
| 2026-05-06 21:02 | 51.66756 | 0.44062 | 10193 ft | 284 kts | 265° |
| 2026-05-06 21:03 | 51.66521 | 0.40906 | 9818 ft | 283 kts | 265° |
| 2026-05-06 21:03 | 51.66290 | 0.37772 | 9404 ft | 281 kts | 264° |
| 2026-05-06 21:03 | 51.66058 | 0.34656 | 9005 ft | 279 kts | 264° |
| 2026-05-06 21:03 | 51.65826 | 0.31555 | 8603 ft | 279 kts | 264° |
| 2026-05-06 21:04 | 51.65594 | 0.28460 | 8127 ft | 276 kts | 263° |
| 2026-05-06 21:04 | 51.65363 | 0.25381 | 8021 ft | 278 kts | 263° |
| 2026-05-06 21:04 | 51.65132 | 0.22330 | 8017 ft | 265 kts | 263° |
| 2026-05-06 21:04 | 51.64914 | 0.19472 | 7758 ft | 252 kts | 263° |
| 2026-05-06 21:05 | 51.64703 | 0.16687 | 7299 ft | 249 kts | 262° |
| 2026-05-06 21:05 | 51.64503 | 0.13948 | 7019 ft | 240 kts | 263° |
| 2026-05-06 21:05 | 51.64346 | 0.11233 | 6968 ft | 245 kts | 264° |
| 2026-05-06 21:05 | 51.64205 | 0.08496 | 6918 ft | 245 kts | 264° |
| 2026-05-06 21:06 | 51.64114 | 0.06683 | 6882 ft | 245 kts | 264° |
| 2026-05-06 21:06 | 51.63973 | 0.03946 | 6829 ft | 244 kts | 264° |
| 2026-05-06 21:06 | 51.63829 | 0.01219 | 6715 ft | 244 kts | 264° |
| 2026-05-06 21:06 | 51.63632 | -0.02375 | 6552 ft | 241 kts | 266° |
| 2026-05-06 21:07 | 51.63532 | -0.04181 | 6466 ft | 239 kts | 266° |
| 2026-05-06 21:07 | 51.63388 | -0.06759 | 6514 ft | 238 kts | 265° |
| 2026-05-06 21:07 | 51.63239 | -0.09420 | 6527 ft | 239 kts | 266° |
| 2026-05-06 21:07 | 51.63089 | -0.12082 | 6531 ft | 239 kts | 266° |
| 2026-05-06 21:08 | 51.62938 | -0.14746 | 6534 ft | 239 kts | 266° |
| 2026-05-06 21:08 | 51.62787 | -0.17405 | 6535 ft | 239 kts | 265° |
| 2026-05-06 21:08 | 51.62635 | -0.20038 | 6536 ft | 239 kts | 266° |
| 2026-05-06 21:08 | 51.62477 | -0.22739 | 6536 ft | 239 kts | 265° |
| 2026-05-06 21:09 | 51.62324 | -0.25367 | 6537 ft | 239 kts | 265° |
| 2026-05-06 21:09 | 51.62170 | -0.28035 | 6537 ft | 239 kts | 266° |
| 2026-05-06 21:09 | 51.62017 | -0.30699 | 6536 ft | 239 kts | 265° |
| 2026-05-06 21:09 | 51.61863 | -0.33360 | 6508 ft | 239 kts | 266° |
| 2026-05-06 21:10 | 51.61709 | -0.36019 | 6506 ft | 239 kts | 266° |
| 2026-05-06 21:10 | 51.61553 | -0.38681 | 6508 ft | 239 kts | 265° |
| 2026-05-06 21:10 | 51.61395 | -0.41342 | 6509 ft | 239 kts | 266° |
| 2026-05-06 21:10 | 51.61238 | -0.44001 | 6510 ft | 239 kts | 265° |
| 2026-05-06 21:11 | 51.61077 | -0.46698 | 6513 ft | 239 kts | 266° |
| 2026-05-06 21:11 | 51.60919 | -0.49320 | 6511 ft | 239 kts | 265° |
| 2026-05-06 21:11 | 51.60759 | -0.51982 | 6510 ft | 239 kts | 265° |
| 2026-05-06 21:11 | 51.60597 | -0.54649 | 6508 ft | 239 kts | 265° |
| 2026-05-06 21:12 | 51.60435 | -0.57306 | 6509 ft | 239 kts | 265° |
| 2026-05-06 21:12 | 51.60271 | -0.59965 | 6509 ft | 239 kts | 265° |
| 2026-05-06 21:12 | 51.60108 | -0.62625 | 6509 ft | 239 kts | 265° |
| 2026-05-06 21:12 | 51.59947 | -0.65283 | 6502 ft | 239 kts | 265° |
| 2026-05-06 21:13 | 51.59783 | -0.67971 | 6170 ft | 242 kts | 265° |
| 2026-05-06 21:13 | 51.59616 | -0.70653 | 5909 ft | 239 kts | 265° |
| 2026-05-06 21:13 | 51.59452 | -0.73301 | 5661 ft | 236 kts | 265° |
| 2026-05-06 21:13 | 51.59287 | -0.75919 | 5412 ft | 235 kts | 265° |
| 2026-05-06 21:14 | 51.59117 | -0.78585 | 5151 ft | 243 kts | 265° |
| 2026-05-06 21:14 | 51.58947 | -0.81288 | 4907 ft | 243 kts | 265° |
| 2026-05-06 21:14 | 51.58774 | -0.83992 | 4644 ft | 243 kts | 265° |
| 2026-05-06 21:14 | 51.58598 | -0.86683 | 4382 ft | 242 kts | 265° |
| 2026-05-06 21:15 | 51.58417 | -0.89375 | 4131 ft | 242 kts | 265° |
| 2026-05-06 21:15 | 51.58142 | -0.92037 | 3871 ft | 240 kts | 252° |
| 2026-05-06 21:15 | 51.57309 | -0.94277 | 3600 ft | 230 kts | 225° |
| 2026-05-06 21:15 | 51.56020 | -0.95646 | 3338 ft | 219 kts | 199° |
| 2026-05-06 21:16 | 51.54573 | -0.96011 | 3139 ft | 204 kts | 175° |
| 2026-05-06 21:16 | 51.53231 | -0.95478 | 3004 ft | 196 kts | 152° |
| 2026-05-06 21:16 | 51.52147 | -0.94215 | 2940 ft | 194 kts | 129° |
| 2026-05-06 21:16 | 51.51413 | -0.92364 | 2997 ft | 198 kts | 108° |
| 2026-05-06 21:17 | 51.50960 | -0.90278 | 2991 ft | 198 kts | 107° |
| 2026-05-06 21:17 | 51.50477 | -0.88064 | 2999 ft | 222 kts | 107° |
| 2026-05-06 21:17 | 51.49953 | -0.85686 | 2988 ft | 228 kts | 108° |
| 2026-05-06 21:17 | 51.49420 | -0.83290 | 2992 ft | 228 kts | 108° |
| 2026-05-06 21:18 | 51.48888 | -0.80888 | 2992 ft | 229 kts | 108° |
| 2026-05-06 21:18 | 51.48355 | -0.78483 | 2995 ft | 229 kts | 108° |
| 2026-05-06 21:18 | 51.47827 | -0.76077 | 2999 ft | 228 kts | 105° |
| 2026-05-06 21:18 | 51.47603 | -0.73578 | 2924 ft | 228 kts | 89° |
| 2026-05-06 21:19 | 51.47618 | -0.71056 | 2692 ft | 225 kts | 87° |
| 2026-05-06 21:19 | 51.47645 | -0.68578 | 2570 ft | 218 kts | 87° |
| 2026-05-06 21:19 | 51.47662 | -0.66167 | 2325 ft | 214 kts | 87° |
| 2026-05-06 21:19 | 51.47676 | -0.63811 | 2073 ft | 212 kts | 88° |
| 2026-05-06 21:20 | 51.47687 | -0.61509 | 1777 ft | 201 kts | 87° |
| 2026-05-06 21:20 | 51.47698 | -0.59336 | 1494 ft | 187 kts | 87° |
| 2026-05-06 21:20 | 51.47707 | -0.57345 | 1239 ft | 169 kts | 87° |
| 2026-05-06 21:20 | 51.47715 | -0.55550 | 1008 ft | 154 kts | 87° |
| 2026-05-06 21:21 | 51.47723 | -0.53897 | 821 ft | 144 kts | 87° |
| 2026-05-06 21:21 | 51.47729 | -0.52334 | 624 ft | 138 kts | 88° |
| 2026-05-06 21:21 | 51.47750 | -0.50808 | 405 ft | 137 kts | 86° |
| 2026-05-06 21:21 | 51.47751 | -0.49290 | 219 ft | 135 kts | 87° |
| 2026-05-06 21:22 | 51.47762 | -0.47794 | 86 ft | 127 kts | 89° |
| 2026-05-06 21:22 | 51.47760 | -0.46645 | 94 ft | 78 kts | 90° |
| 2026-05-06 21:22 | 51.47755 | -0.46092 | 90 ft | 36 kts | 86° |
| 2026-05-06 21:22 | 51.47764 | -0.45685 | 83 ft | 36 kts | 92° |
| 2026-05-06 21:23 | 51.47671 | -0.45467 | 86 ft | 24 kts | 174° |
| 2026-05-06 21:23 | 51.47598 | -0.45560 | 85 ft | 15 kts | 264° |
| 2026-05-06 21:23 | 51.47595 | -0.45738 | 89 ft | 17 kts | 270° |
| 2026-05-06 21:23 | 51.47594 | -0.45938 | 87 ft | 19 kts | 269° |
| 2026-05-06 21:24 | 51.47594 | -0.46165 | 89 ft | 21 kts | 269° |
| 2026-05-06 21:24 | 51.47592 | -0.46404 | 89 ft | 23 kts | 270° |
| 2026-05-06 21:24 | 51.47591 | -0.46668 | 90 ft | 25 kts | 271° |
| 2026-05-06 21:24 | 51.47585 | -0.46952 | 91 ft | 23 kts | 274° |
| 2026-05-06 21:25 | 51.47582 | -0.47226 | 90 ft | 26 kts | 270° |
| 2026-05-06 21:25 | 51.47580 | -0.47526 | 88 ft | 20 kts | 268° |
| 2026-05-06 21:25 | 51.47581 | -0.47766 | 88 ft | 23 kts | 268° |
| 2026-05-06 21:25 | 51.47579 | -0.48031 | 90 ft | 24 kts | 270° |
| 2026-05-06 21:26 | 51.47578 | -0.48236 | 90 ft | 7 kts | 270° |
| 2026-05-06 21:26 | 51.47578 | -0.48322 | 90 ft | 9 kts | 269° |
| 2026-05-06 21:26 | 51.47572 | -0.48439 | 89 ft | 12 kts | 248° |
| 2026-05-06 21:26 | 51.47474 | -0.48479 | 85 ft | 18 kts | 179° |
| 2026-05-06 21:27 | 51.47339 | -0.48474 | 85 ft | 21 kts | 179° |
| 2026-05-06 21:27 | 51.47210 | -0.48475 | 85 ft | 13 kts | 181° |
| 2026-05-06 21:27 | 51.47186 | -0.48512 | 86 ft | 6 kts | 267° |
| 2026-05-06 21:27 | 51.47187 | -0.48589 | 85 ft | 6 kts | 272° |
| 2026-05-06 21:28 | 51.47187 | -0.48599 | 85 ft | 0 kts | 272° |